createdAt,value
2022-09-09T00:00:15.100Z,1005.76
2022-09-09T00:01:17.294Z,1005.73
2022-09-09T00:02:17.533Z,1005.75
2022-09-09T00:03:17.798Z,1005.69
2022-09-09T00:04:16.030Z,1005.71
2022-09-09T00:05:16.349Z,1005.68
2022-09-09T00:06:16.674Z,1005.68
2022-09-09T00:07:18.844Z,1005.69
2022-09-09T00:08:17.241Z,1005.64
2022-09-09T00:09:17.568Z,1005.67
2022-09-09T00:10:17.899Z,1005.64
2022-09-09T00:11:18.217Z,1005.64
2022-09-09T00:12:20.400Z,1005.60
2022-09-09T00:13:18.786Z,1005.62
2022-09-09T00:14:20.949Z,1005.57
2022-09-09T00:15:21.137Z,1005.53
2022-09-09T00:16:19.735Z,1005.53
2022-09-09T00:17:21.838Z,1005.52
2022-09-09T00:18:23.490Z,1005.53
2022-09-09T00:19:22.212Z,1005.49
2022-09-09T00:20:20.859Z,1005.50
2022-09-09T00:21:21.177Z,1005.51
2022-09-09T00:22:24.323Z,1005.49
2022-09-09T00:23:21.744Z,1005.54
2022-09-09T00:24:24.849Z,1005.51
2022-09-09T00:25:22.395Z,1005.53
2022-09-09T00:26:23.592Z,1005.51
2022-09-09T00:27:24.929Z,1005.56
2022-09-09T00:28:23.202Z,1005.57
2022-09-09T00:29:23.532Z,1005.58
2022-09-09T00:30:23.889Z,1005.57
2022-09-09T00:31:24.234Z,1005.57
2022-09-09T00:32:26.388Z,1005.56
2022-09-09T00:33:24.784Z,1005.51
2022-09-09T00:34:25.114Z,1005.47
2022-09-09T00:35:25.433Z,1005.48
2022-09-09T00:36:25.781Z,1005.53
2022-09-09T00:37:27.961Z,1005.53
2022-09-09T00:38:26.393Z,1005.54
2022-09-09T00:39:28.598Z,1005.54
2022-09-09T00:40:26.981Z,1005.55
2022-09-09T00:41:29.161Z,1005.52
2022-09-09T00:42:27.588Z,1005.56
2022-09-09T00:43:29.759Z,1005.52
2022-09-09T00:44:28.054Z,1005.54
2022-09-09T00:45:28.366Z,1005.50
2022-09-09T00:46:30.617Z,1005.48
2022-09-09T00:47:29.004Z,1005.47
2022-09-09T00:48:29.399Z,1005.50
2022-09-09T00:49:29.683Z,1005.48
2022-09-09T00:50:30.007Z,1005.51
2022-09-09T00:51:32.189Z,1005.51
2022-09-09T00:52:30.601Z,1005.49
2022-09-09T00:53:32.777Z,1005.48
2022-09-09T00:54:31.947Z,1005.48
2022-09-09T00:55:31.458Z,1005.51
2022-09-09T00:56:31.782Z,1005.50
2022-09-09T00:57:33.961Z,1005.51
2022-09-09T00:58:34.342Z,1005.44
2022-09-09T00:59:34.300Z,1005.49
2022-09-09T01:00:34.459Z,1005.49
2022-09-09T01:01:35.190Z,1005.50
2022-09-09T01:02:35.342Z,1005.47
2022-09-09T01:03:35.495Z,1005.41
2022-09-09T01:04:35.698Z,1005.48
2022-09-09T01:05:36.373Z,1005.49
2022-09-09T01:06:36.559Z,1005.51
2022-09-09T01:07:36.726Z,1005.52
2022-09-09T01:08:36.942Z,1005.48
2022-09-09T01:09:37.584Z,1005.50
2022-09-09T01:10:37.772Z,1005.51
2022-09-09T01:11:36.286Z,1005.52
2022-09-09T01:12:38.472Z,1005.51
2022-09-09T01:13:36.890Z,1005.49
2022-09-09T01:14:39.113Z,1005.48
2022-09-09T01:15:39.291Z,1005.44
2022-09-09T01:16:39.521Z,1005.37
2022-09-09T01:17:40.151Z,1005.36
2022-09-09T01:18:40.309Z,1005.38
2022-09-09T01:19:38.753Z,1005.39
2022-09-09T01:20:40.888Z,1005.39
2022-09-09T01:21:41.070Z,1005.42
2022-09-09T01:22:41.253Z,1005.43
2022-09-09T01:23:41.434Z,1005.43
2022-09-09T01:24:42.563Z,1005.43
2022-09-09T01:25:40.369Z,1005.44
2022-09-09T01:26:42.562Z,1005.45
2022-09-09T01:27:42.741Z,1005.44
2022-09-09T01:28:42.903Z,1005.43
2022-09-09T01:29:44.513Z,1005.38
2022-09-09T01:30:41.861Z,1005.35
2022-09-09T01:31:44.004Z,1005.37
2022-09-09T01:32:44.195Z,1005.37
2022-09-09T01:33:44.371Z,1005.41
2022-09-09T01:34:44.539Z,1005.33
2022-09-09T01:35:44.690Z,1005.37
2022-09-09T01:36:45.382Z,1005.41
2022-09-09T01:37:45.564Z,1005.43
2022-09-09T01:38:45.735Z,1005.45
2022-09-09T01:39:45.957Z,1005.43
2022-09-09T01:40:46.596Z,1005.37
2022-09-09T01:41:46.788Z,1005.39
2022-09-09T01:42:46.963Z,1005.39
2022-09-09T01:43:47.115Z,1005.39
2022-09-09T01:44:46.564Z,1005.39
2022-09-09T01:45:47.985Z,1005.37
2022-09-09T01:46:48.136Z,1005.41
2022-09-09T01:47:48.312Z,1005.37
2022-09-09T01:48:48.498Z,1005.42
2022-09-09T01:49:50.688Z,1005.44
2022-09-09T01:50:47.601Z,1005.43
2022-09-09T01:51:47.928Z,1005.40
2022-09-09T01:52:50.117Z,1005.37
2022-09-09T01:53:50.276Z,1005.38
2022-09-09T01:54:50.531Z,1005.38
2022-09-09T01:55:50.677Z,1005.37
2022-09-09T01:56:50.845Z,1005.37
2022-09-09T01:57:51.515Z,1005.37
2022-09-09T01:58:51.696Z,1005.34
2022-09-09T01:59:50.206Z,1005.34
2022-09-09T02:00:52.408Z,1005.36
2022-09-09T02:01:50.769Z,1005.34
2022-09-09T02:02:53.052Z,1005.33
2022-09-09T02:03:53.131Z,1005.37
2022-09-09T02:04:51.672Z,1005.36
2022-09-09T02:05:53.879Z,1005.34
2022-09-09T02:06:52.275Z,1005.35
2022-09-09T02:07:55.456Z,1005.38
2022-09-09T02:08:54.639Z,1005.36
2022-09-09T02:09:53.157Z,1005.39
2022-09-09T02:10:53.484Z,1005.39
2022-09-09T02:11:53.809Z,1005.42
2022-09-09T02:12:56.942Z,1005.39
2022-09-09T02:13:57.124Z,1005.40
2022-09-09T02:14:54.666Z,1005.40
2022-09-09T02:15:54.994Z,1005.39
2022-09-09T02:16:55.367Z,1005.38
2022-09-09T02:17:55.543Z,1005.40
2022-09-09T02:18:57.727Z,1005.40
2022-09-09T02:19:56.143Z,1005.45
2022-09-09T02:20:57.425Z,1005.43
2022-09-09T02:21:57.600Z,1005.44
2022-09-09T02:22:58.065Z,1005.40
2022-09-09T02:23:59.333Z,1005.43
2022-09-09T02:24:58.168Z,1005.42
2022-09-09T02:25:58.043Z,1005.43
2022-09-09T02:26:58.358Z,1005.39
2022-09-09T02:27:58.687Z,1005.39
2022-09-09T02:29:00.861Z,1005.37
2022-09-09T02:29:59.265Z,1005.40
2022-09-09T02:30:59.670Z,1005.43
2022-09-09T02:31:59.875Z,1005.44
2022-09-09T02:33:00.190Z,1005.44
2022-09-09T02:34:02.382Z,1005.45
2022-09-09T02:35:00.781Z,1005.44
2022-09-09T02:36:01.115Z,1005.47
2022-09-09T02:37:03.284Z,1005.47
2022-09-09T02:38:01.705Z,1005.49
2022-09-09T02:39:03.833Z,1005.48
2022-09-09T02:40:02.370Z,1005.48
2022-09-09T02:41:02.480Z,1005.50
2022-09-09T02:42:04.665Z,1005.49
2022-09-09T02:43:03.073Z,1005.51
2022-09-09T02:44:03.426Z,1005.48
2022-09-09T02:45:05.593Z,1005.51
2022-09-09T02:46:04.096Z,1005.49
2022-09-09T02:47:04.315Z,1005.51
2022-09-09T02:48:06.496Z,1005.47
2022-09-09T02:49:04.905Z,1005.44
2022-09-09T02:50:07.096Z,1005.46
2022-09-09T02:51:07.278Z,1005.44
2022-09-09T02:52:07.456Z,1005.36
2022-09-09T02:53:07.664Z,1005.45
2022-09-09T02:54:08.358Z,1005.41
2022-09-09T02:55:08.550Z,1005.37
2022-09-09T02:56:08.741Z,1005.44
2022-09-09T02:57:08.919Z,1005.41
2022-09-09T02:58:09.600Z,1005.39
2022-09-09T02:59:09.782Z,1005.43
2022-09-09T03:00:09.968Z,1005.42
2022-09-09T03:01:10.675Z,1005.42
2022-09-09T03:02:10.908Z,1005.40
2022-09-09T03:03:11.000Z,1005.35
2022-09-09T03:04:11.159Z,1005.31
2022-09-09T03:05:11.353Z,1005.33
2022-09-09T03:06:10.127Z,1005.33
2022-09-09T03:07:10.454Z,1005.34
2022-09-09T03:08:12.637Z,1005.35
2022-09-09T03:09:11.035Z,1005.32
2022-09-09T03:10:13.222Z,1005.33
2022-09-09T03:11:11.610Z,1005.32
2022-09-09T03:12:11.958Z,1005.31
2022-09-09T03:13:12.297Z,1005.33
2022-09-09T03:14:12.644Z,1005.36
2022-09-09T03:15:14.831Z,1005.33
2022-09-09T03:16:13.281Z,1005.31
2022-09-09T03:17:13.585Z,1005.33
2022-09-09T03:18:15.765Z,1005.34
2022-09-09T03:19:14.161Z,1005.35
2022-09-09T03:20:16.355Z,1005.36
2022-09-09T03:21:14.774Z,1005.37
2022-09-09T03:22:16.957Z,1005.36
2022-09-09T03:23:17.111Z,1005.38
2022-09-09T03:24:17.273Z,1005.40
2022-09-09T03:25:15.929Z,1005.43
2022-09-09T03:26:18.106Z,1005.42
2022-09-09T03:27:18.260Z,1005.42
2022-09-09T03:28:18.422Z,1005.45
2022-09-09T03:29:18.581Z,1005.43
2022-09-09T03:30:19.309Z,1005.46
2022-09-09T03:31:19.507Z,1005.44
2022-09-09T03:32:19.643Z,1005.43
2022-09-09T03:33:19.794Z,1005.50
2022-09-09T03:34:20.653Z,1005.48
2022-09-09T03:35:20.676Z,1005.52
2022-09-09T03:36:20.827Z,1005.50
2022-09-09T03:37:20.988Z,1005.50
2022-09-09T03:38:21.188Z,1005.50
2022-09-09T03:39:19.978Z,1005.47
2022-09-09T03:40:22.182Z,1005.44
2022-09-09T03:41:22.358Z,1005.40
2022-09-09T03:42:22.541Z,1005.45
2022-09-09T03:43:21.201Z,1005.46
2022-09-09T03:44:21.548Z,1005.43
2022-09-09T03:45:23.744Z,1005.45
2022-09-09T03:46:23.902Z,1005.42
2022-09-09T03:47:24.081Z,1005.47
2022-09-09T03:48:22.739Z,1005.49
2022-09-09T03:49:23.076Z,1005.47
2022-09-09T03:50:25.281Z,1005.44
2022-09-09T03:51:25.480Z,1005.44
2022-09-09T03:52:25.647Z,1005.42
2022-09-09T03:53:24.513Z,1005.40
2022-09-09T03:54:24.566Z,1005.40
2022-09-09T03:55:26.755Z,1005.38
2022-09-09T03:56:26.941Z,1005.44
2022-09-09T03:57:25.473Z,1005.47
2022-09-09T03:58:25.825Z,1005.42
2022-09-09T03:59:26.037Z,1005.46
2022-09-09T04:00:28.227Z,1005.42
2022-09-09T04:01:26.678Z,1005.41
2022-09-09T04:02:26.956Z,1005.41
2022-09-09T04:03:28.353Z,1005.40
2022-09-09T04:04:28.258Z,1005.41
2022-09-09T04:05:28.712Z,1005.47
2022-09-09T04:06:29.881Z,1005.46
2022-09-09T04:07:28.291Z,1005.51
2022-09-09T04:08:28.747Z,1005.53
2022-09-09T04:09:28.918Z,1005.54
2022-09-09T04:10:29.281Z,1005.53
2022-09-09T04:11:31.478Z,1005.59
2022-09-09T04:12:29.766Z,1005.60
2022-09-09T04:13:31.929Z,1005.55
2022-09-09T04:14:30.346Z,1005.56
2022-09-09T04:15:30.684Z,1005.52
2022-09-09T04:16:32.925Z,1005.52
2022-09-09T04:17:31.319Z,1005.51
2022-09-09T04:18:31.676Z,1005.58
2022-09-09T04:19:31.885Z,1005.54
2022-09-09T04:20:32.234Z,1005.54
2022-09-09T04:21:34.412Z,1005.51
2022-09-09T04:22:32.726Z,1005.55
2022-09-09T04:23:32.951Z,1005.56
2022-09-09T04:24:33.192Z,1005.56
2022-09-09T04:25:33.530Z,1005.58
2022-09-09T04:26:35.740Z,1005.58
2022-09-09T04:27:35.921Z,1005.61
2022-09-09T04:28:34.384Z,1005.63
2022-09-09T04:29:36.504Z,1005.62
2022-09-09T04:30:34.942Z,1005.60
2022-09-09T04:31:35.207Z,1005.58
2022-09-09T04:32:37.363Z,1005.57
2022-09-09T04:33:39.890Z,1005.56
2022-09-09T04:34:37.848Z,1005.61
2022-09-09T04:35:36.285Z,1005.60
2022-09-09T04:36:36.529Z,1005.57
2022-09-09T04:37:36.784Z,1005.60
2022-09-09T04:38:37.162Z,1005.62
2022-09-09T04:39:39.247Z,1005.60
2022-09-09T04:40:39.352Z,1005.63
2022-09-09T04:41:39.529Z,1005.65
2022-09-09T04:42:39.733Z,1005.62
2022-09-09T04:43:38.407Z,1005.61
2022-09-09T04:44:38.651Z,1005.60
2022-09-09T04:45:40.896Z,1005.62
2022-09-09T04:46:41.045Z,1005.63
2022-09-09T04:47:39.478Z,1005.62
2022-09-09T04:48:41.671Z,1005.63
2022-09-09T04:49:39.976Z,1005.62
2022-09-09T04:50:42.281Z,1005.64
2022-09-09T04:51:42.398Z,1005.59
2022-09-09T04:52:40.748Z,1005.65
2022-09-09T04:53:40.965Z,1005.62
2022-09-09T04:54:41.213Z,1005.68
2022-09-09T04:55:43.390Z,1005.75
2022-09-09T04:56:43.573Z,1005.73
2022-09-09T04:57:42.114Z,1005.68
2022-09-09T04:58:42.332Z,1005.67
2022-09-09T04:59:42.568Z,1005.72
2022-09-09T05:00:44.812Z,1005.73
2022-09-09T05:01:44.983Z,1005.77
2022-09-09T05:02:45.148Z,1005.81
2022-09-09T05:03:43.751Z,1005.79
2022-09-09T05:04:45.889Z,1005.86
2022-09-09T05:05:46.082Z,1005.87
2022-09-09T05:06:46.256Z,1005.85
2022-09-09T05:07:46.934Z,1005.85
2022-09-09T05:08:47.228Z,1005.88
2022-09-09T05:09:47.352Z,1005.87
2022-09-09T05:10:47.534Z,1005.86
2022-09-09T05:11:47.715Z,1005.87
2022-09-09T05:12:48.392Z,1005.86
2022-09-09T05:13:49.505Z,1005.83
2022-09-09T05:14:48.742Z,1005.77
2022-09-09T05:15:48.925Z,1005.83
2022-09-09T05:16:49.126Z,1005.85
2022-09-09T05:17:49.793Z,1005.88
2022-09-09T05:18:50.965Z,1005.92
2022-09-09T05:19:50.188Z,1005.92
2022-09-09T05:20:51.355Z,1005.95
2022-09-09T05:21:50.566Z,1005.96
2022-09-09T05:22:51.251Z,1005.96
2022-09-09T05:23:51.478Z,1005.92
2022-09-09T05:24:51.626Z,1005.92
2022-09-09T05:25:50.306Z,1005.89
2022-09-09T05:26:50.563Z,1005.90
2022-09-09T05:27:50.828Z,1005.88
2022-09-09T05:28:51.062Z,1005.93
2022-09-09T05:29:51.321Z,1005.93
2022-09-09T05:30:53.512Z,1005.96
2022-09-09T05:31:53.823Z,1005.99
2022-09-09T05:32:53.876Z,1005.97
2022-09-09T05:33:54.311Z,1005.94
2022-09-09T05:34:54.448Z,1005.96
2022-09-09T05:35:54.623Z,1005.94
2022-09-09T05:36:55.321Z,1005.95
2022-09-09T05:37:55.473Z,1005.97
2022-09-09T05:38:55.648Z,1005.97
2022-09-09T05:39:55.873Z,1005.99
2022-09-09T05:40:56.505Z,1005.97
2022-09-09T05:41:56.671Z,1005.95
2022-09-09T05:42:55.097Z,1005.94
2022-09-09T05:43:57.273Z,1005.94
2022-09-09T05:44:57.469Z,1005.96
2022-09-09T05:45:57.655Z,1005.97
2022-09-09T05:46:58.859Z,1005.97
2022-09-09T05:47:58.530Z,1005.99
2022-09-09T05:48:56.837Z,1005.95
2022-09-09T05:49:57.089Z,1005.97
2022-09-09T05:50:59.266Z,1005.97
2022-09-09T05:51:57.586Z,1005.93
2022-09-09T05:52:59.771Z,1005.97
2022-09-09T05:53:58.080Z,1005.98
2022-09-09T05:54:58.328Z,1005.97
2022-09-09T05:56:00.532Z,1005.94
2022-09-09T05:56:58.841Z,1005.96
2022-09-09T05:58:00.984Z,1005.93
2022-09-09T05:58:59.297Z,1005.92
2022-09-09T05:59:59.529Z,1005.92
2022-09-09T06:01:01.705Z,1005.93
2022-09-09T06:02:00.341Z,1005.97
2022-09-09T06:03:00.359Z,1005.99
2022-09-09T06:04:00.487Z,1005.98
2022-09-09T06:05:00.907Z,1006.02
2022-09-09T06:06:02.901Z,1006.02
2022-09-09T06:07:03.080Z,1005.99
2022-09-09T06:08:01.507Z,1006.07
2022-09-09T06:09:01.763Z,1006.12
2022-09-09T06:10:01.985Z,1006.06
2022-09-09T06:11:04.164Z,1006.08
2022-09-09T06:12:04.338Z,1006.07
2022-09-09T06:13:02.768Z,1006.12
2022-09-09T06:14:03.018Z,1006.14
2022-09-09T06:15:03.262Z,1006.11
2022-09-09T06:16:05.511Z,1006.15
2022-09-09T06:17:05.666Z,1006.16
2022-09-09T06:18:04.091Z,1006.18
2022-09-09T06:19:04.345Z,1006.26
2022-09-09T06:20:04.573Z,1006.23
2022-09-09T06:21:06.746Z,1006.28
2022-09-09T06:22:07.885Z,1006.28
2022-09-09T06:23:05.340Z,1006.30
2022-09-09T06:24:05.591Z,1006.35
2022-09-09T06:25:06.786Z,1006.34
2022-09-09T06:26:08.024Z,1006.35
2022-09-09T06:27:08.195Z,1006.34
2022-09-09T06:28:06.717Z,1006.36
2022-09-09T06:29:06.982Z,1006.41
2022-09-09T06:30:07.226Z,1006.34
2022-09-09T06:31:09.435Z,1006.37
2022-09-09T06:32:09.598Z,1006.41
2022-09-09T06:33:08.021Z,1006.40
2022-09-09T06:34:08.276Z,1006.44
2022-09-09T06:35:08.526Z,1006.47
2022-09-09T06:36:08.783Z,1006.42
2022-09-09T06:37:10.957Z,1006.45
2022-09-09T06:38:10.142Z,1006.43
2022-09-09T06:39:14.151Z,1006.45
2022-09-09T06:40:10.887Z,1006.48
2022-09-09T06:41:10.143Z,1006.47
2022-09-09T06:42:12.314Z,1006.45
2022-09-09T06:43:10.744Z,1006.50
2022-09-09T06:44:10.980Z,1006.48
2022-09-09T06:45:11.221Z,1006.48
2022-09-09T06:46:13.125Z,1006.48
2022-09-09T06:47:13.743Z,1006.51
2022-09-09T06:48:12.084Z,1006.46
2022-09-09T06:49:12.339Z,1006.48
2022-09-09T06:50:12.570Z,1006.40
2022-09-09T06:51:12.815Z,1006.40
2022-09-09T06:52:15.001Z,1006.42
2022-09-09T06:53:13.381Z,1006.40
2022-09-09T06:54:13.632Z,1006.41
2022-09-09T06:55:13.845Z,1006.43
2022-09-09T06:56:17.881Z,1006.44
2022-09-09T06:57:36.041Z,1006.39
2022-09-09T06:58:16.416Z,1006.43
2022-09-09T06:59:14.862Z,1006.46
2022-09-09T07:00:15.137Z,1006.46
2022-09-09T07:01:15.402Z,1006.38
2022-09-09T07:02:17.646Z,1006.41
2022-09-09T07:03:15.909Z,1006.40
2022-09-09T07:04:16.150Z,1006.46
2022-09-09T07:05:18.326Z,1006.42
2022-09-09T07:06:18.520Z,1006.43
2022-09-09T07:07:18.699Z,1006.42
2022-09-09T07:08:18.889Z,1006.43
2022-09-09T07:09:19.553Z,1006.41
2022-09-09T07:10:19.699Z,1006.46
2022-09-09T07:11:19.865Z,1006.46
2022-09-09T07:12:20.031Z,1006.50
2022-09-09T07:13:20.699Z,1006.50
2022-09-09T07:14:20.951Z,1006.45
2022-09-09T07:15:21.071Z,1006.49
2022-09-09T07:16:21.315Z,1006.47
2022-09-09T07:17:21.420Z,1006.50
2022-09-09T07:18:20.015Z,1006.49
2022-09-09T07:19:22.161Z,1006.49
2022-09-09T07:20:22.417Z,1006.47
2022-09-09T07:21:22.492Z,1006.51
2022-09-09T07:22:22.677Z,1006.52
2022-09-09T07:23:23.354Z,1006.46
2022-09-09T07:24:21.683Z,1006.44
2022-09-09T07:25:21.917Z,1006.46
2022-09-09T07:26:22.154Z,1006.43
2022-09-09T07:27:24.331Z,1006.41
2022-09-09T07:28:24.526Z,1006.44
2022-09-09T07:29:22.963Z,1006.41
2022-09-09T07:30:27.556Z,1006.41
2022-09-09T07:31:23.574Z,1006.41
2022-09-09T07:32:25.702Z,1006.42
2022-09-09T07:33:25.848Z,1006.42
2022-09-09T07:34:24.275Z,1006.44
2022-09-09T07:35:24.502Z,1006.42
2022-09-09T07:36:24.739Z,1006.40
2022-09-09T07:37:26.918Z,1006.41
2022-09-09T07:38:28.070Z,1006.44
2022-09-09T07:39:25.510Z,1006.44
2022-09-09T07:40:27.667Z,1006.48
2022-09-09T07:41:27.820Z,1006.47
2022-09-09T07:42:28.354Z,1006.45
2022-09-09T07:43:28.172Z,1006.50
2022-09-09T07:44:28.860Z,1006.52
2022-09-09T07:45:29.027Z,1006.53
2022-09-09T07:46:29.275Z,1006.51
2022-09-09T07:47:29.382Z,1006.50
2022-09-09T07:48:30.128Z,1006.50
2022-09-09T07:49:32.833Z,1006.53
2022-09-09T07:50:28.611Z,1006.51
2022-09-09T07:51:30.786Z,1006.50
2022-09-09T07:52:29.185Z,1006.54
2022-09-09T07:53:31.618Z,1006.53
2022-09-09T07:54:32.978Z,1006.50
2022-09-09T07:55:31.630Z,1006.52
2022-09-09T07:56:33.518Z,1006.51
2022-09-09T07:57:32.485Z,1006.54
2022-09-09T07:58:37.725Z,1006.54
2022-09-09T07:59:32.233Z,1006.53
2022-09-09T08:00:31.520Z,1006.52
2022-09-09T08:01:31.918Z,1006.49
2022-09-09T08:02:33.942Z,1006.50
2022-09-09T08:03:35.584Z,1006.54
2022-09-09T08:04:32.651Z,1006.58
2022-09-09T08:05:32.887Z,1006.58
2022-09-09T08:06:33.128Z,1006.60
2022-09-09T08:07:35.282Z,1006.57
2022-09-09T08:08:35.464Z,1006.59
2022-09-09T08:09:35.639Z,1006.58
2022-09-09T08:10:35.822Z,1006.55
2022-09-09T08:11:39.045Z,1006.62
2022-09-09T08:12:36.661Z,1006.61
2022-09-09T08:13:36.889Z,1006.61
2022-09-09T08:14:37.003Z,1006.60
2022-09-09T08:15:35.792Z,1006.53
2022-09-09T08:16:37.854Z,1006.53
2022-09-09T08:17:38.030Z,1006.61
2022-09-09T08:18:38.214Z,1006.45
2022-09-09T08:19:36.975Z,1006.46
2022-09-09T08:20:37.200Z,1006.47
2022-09-09T08:21:39.377Z,1006.54
2022-09-09T08:22:39.558Z,1006.62
2022-09-09T08:23:38.077Z,1006.55
2022-09-09T08:24:38.279Z,1006.53
2022-09-09T08:25:38.516Z,1006.53
2022-09-09T08:26:40.696Z,1006.54
2022-09-09T08:27:40.249Z,1006.57
2022-09-09T08:28:40.934Z,1006.55
2022-09-09T08:29:40.083Z,1006.59
2022-09-09T08:30:39.876Z,1006.58
2022-09-09T08:31:42.039Z,1006.62
2022-09-09T08:32:43.368Z,1006.66
2022-09-09T08:33:41.579Z,1006.66
2022-09-09T08:34:46.714Z,1006.65
2022-09-09T08:35:41.170Z,1006.67
2022-09-09T08:36:41.422Z,1006.69
2022-09-09T08:37:41.636Z,1006.71
2022-09-09T08:38:41.878Z,1006.81
2022-09-09T08:39:44.095Z,1006.76
2022-09-09T08:40:43.232Z,1006.69
2022-09-09T08:41:42.645Z,1006.67
2022-09-09T08:42:43.807Z,1006.71
2022-09-09T08:43:45.065Z,1006.72
2022-09-09T08:44:48.750Z,1006.72
2022-09-09T08:45:43.737Z,1006.71
2022-09-09T08:46:45.987Z,1006.70
2022-09-09T08:47:45.133Z,1006.77
2022-09-09T08:48:46.636Z,1006.82
2022-09-09T08:49:46.754Z,1006.81
2022-09-09T08:50:46.935Z,1006.90
2022-09-09T08:51:45.373Z,1006.89
2022-09-09T08:52:45.614Z,1006.82
2022-09-09T08:53:45.846Z,1006.84
2022-09-09T08:54:52.633Z,1006.84
2022-09-09T08:55:49.254Z,1006.88
2022-09-09T08:56:48.433Z,1006.92
2022-09-09T08:57:46.855Z,1006.91
2022-09-09T08:58:47.092Z,1006.99
2022-09-09T08:59:49.275Z,1006.93
2022-09-09T09:00:47.577Z,1006.89
2022-09-09T09:01:49.830Z,1006.93
2022-09-09T09:02:49.931Z,1006.93
2022-09-09T09:03:48.354Z,1006.93
2022-09-09T09:04:48.661Z,1006.95
2022-09-09T09:05:48.878Z,1006.98
2022-09-09T09:06:49.111Z,1006.93
2022-09-09T09:07:51.287Z,1006.94
2022-09-09T09:08:49.588Z,1006.95
2022-09-09T09:09:50.690Z,1006.97
2022-09-09T09:10:50.116Z,1006.97
2022-09-09T09:11:50.348Z,1006.94
2022-09-09T09:12:52.527Z,1006.97
2022-09-09T09:13:52.709Z,1007.03
2022-09-09T09:14:52.889Z,1007.03
2022-09-09T09:15:51.485Z,1007.00
2022-09-09T09:16:53.586Z,1006.97
2022-09-09T09:17:53.767Z,1006.96
2022-09-09T09:18:53.955Z,1007.01
2022-09-09T09:19:54.652Z,1007.03
2022-09-09T09:20:54.819Z,1007.07
2022-09-09T09:21:55.011Z,1007.07
2022-09-09T09:22:55.157Z,1007.07
2022-09-09T09:23:55.842Z,1007.11
2022-09-09T09:24:55.142Z,1007.11
2022-09-09T09:25:56.362Z,1007.10
2022-09-09T09:26:54.669Z,1007.16
2022-09-09T09:27:54.905Z,1007.16
2022-09-09T09:28:55.142Z,1007.10
2022-09-09T09:30:21.178Z,1007.12
2022-09-09T09:30:58.592Z,1007.09
2022-09-09T09:31:55.877Z,1007.07
2022-09-09T09:32:56.125Z,1007.12
2022-09-09T09:33:58.289Z,1007.11
2022-09-09T09:34:56.590Z,1007.10
2022-09-09T09:35:56.824Z,1007.17
2022-09-09T09:36:57.062Z,1007.22
2022-09-09T09:40:58.194Z,1007.12
2022-09-09T09:41:58.432Z,1007.21
2022-09-09T09:43:00.595Z,1007.25
2022-09-09T09:43:58.898Z,1007.19
2022-09-09T09:45:01.078Z,1007.14
2022-09-09T09:46:16.798Z,1007.16
2022-09-09T09:47:00.703Z,1007.16
2022-09-09T09:48:06.707Z,1007.17
2022-09-09T09:49:02.454Z,1007.18
2022-09-09T09:50:02.623Z,1007.17
2022-09-09T09:51:02.823Z,1007.24
2022-09-09T09:52:03.005Z,1007.20
2022-09-09T09:53:03.204Z,1007.24
2022-09-09T09:54:02.773Z,1007.23
2022-09-09T09:55:07.435Z,1007.23
2022-09-09T09:56:02.479Z,1007.20
2022-09-09T09:57:04.702Z,1007.25
2022-09-09T09:59:09.418Z,1007.21
2022-09-09T10:00:07.186Z,1007.25
2022-09-09T10:01:05.484Z,1007.22
2022-09-09T10:02:06.072Z,1007.27
2022-09-09T10:03:06.260Z,1007.27
2022-09-09T10:04:06.430Z,1007.21
2022-09-09T10:05:05.069Z,1007.22
2022-09-09T10:06:07.159Z,1007.25
2022-09-09T10:07:07.362Z,1007.25
2022-09-09T10:08:07.548Z,1007.29
2022-09-09T10:09:07.710Z,1007.30
2022-09-09T10:10:08.393Z,1007.32
2022-09-09T10:11:06.699Z,1007.27
2022-09-09T10:12:06.945Z,1007.24
2022-09-09T10:13:07.181Z,1007.31
2022-09-09T10:14:09.360Z,1007.30
2022-09-09T10:15:07.712Z,1007.32
2022-09-09T10:16:07.983Z,1007.34
2022-09-09T10:17:10.106Z,1007.33
2022-09-09T10:18:10.283Z,1007.30
2022-09-09T10:19:10.480Z,1007.31
2022-09-09T10:20:09.140Z,1007.33
2022-09-09T10:21:11.324Z,1007.30
2022-09-09T10:22:11.512Z,1007.31
2022-09-09T10:23:11.689Z,1007.33
2022-09-09T10:24:12.364Z,1007.33
2022-09-09T10:25:10.659Z,1007.32
2022-09-09T10:26:12.833Z,1007.35
2022-09-09T10:27:11.255Z,1007.32
2022-09-09T10:28:13.435Z,1007.35
2022-09-09T10:29:13.631Z,1007.33
2022-09-09T10:30:12.059Z,1007.43
2022-09-09T10:31:14.290Z,1007.49
2022-09-09T10:32:12.640Z,1007.48
2022-09-09T10:33:14.821Z,1007.48
2022-09-09T10:34:13.111Z,1007.43
2022-09-09T10:35:15.299Z,1007.43
2022-09-09T10:36:13.615Z,1007.47
2022-09-09T10:37:15.787Z,1007.47
2022-09-09T10:38:14.089Z,1007.44
2022-09-09T10:39:17.733Z,1007.47
2022-09-09T10:40:16.614Z,1007.44
2022-09-09T10:41:14.919Z,1007.44
2022-09-09T10:42:15.043Z,1007.41
2022-09-09T10:43:15.280Z,1007.43
2022-09-09T10:44:15.513Z,1007.42
2022-09-09T10:45:19.188Z,1007.39
2022-09-09T10:46:16.059Z,1007.42
2022-09-09T10:47:16.269Z,1007.39
2022-09-09T10:48:16.509Z,1007.43
2022-09-09T10:49:22.011Z,1007.41
2022-09-09T10:50:20.907Z,1007.47
2022-09-09T10:51:17.240Z,1007.55
2022-09-09T10:52:19.590Z,1007.55
2022-09-09T10:53:17.781Z,1007.55
2022-09-09T10:54:18.026Z,1007.57
2022-09-09T10:55:20.176Z,1007.52
2022-09-09T10:56:18.483Z,1007.54
2022-09-09T10:57:20.672Z,1007.51
2022-09-09T10:58:18.977Z,1007.38
2022-09-09T10:59:19.236Z,1007.38
2022-09-09T11:00:19.472Z,1007.38
2022-09-09T11:01:21.709Z,1007.41
2022-09-09T11:02:21.837Z,1007.45
2022-09-09T11:03:22.015Z,1007.55
2022-09-09T11:04:20.608Z,1007.56
2022-09-09T11:05:20.814Z,1007.63
2022-09-09T11:06:21.139Z,1007.60
2022-09-09T11:07:23.236Z,1007.57
2022-09-09T11:08:24.680Z,1007.52
2022-09-09T11:09:21.936Z,1007.41
2022-09-09T11:10:23.119Z,1007.42
2022-09-09T11:11:22.411Z,1007.39
2022-09-09T11:12:24.583Z,1007.42
2022-09-09T11:13:22.885Z,1007.41
2022-09-09T11:14:23.128Z,1007.49
2022-09-09T11:15:23.374Z,1007.50
2022-09-09T11:16:23.672Z,1007.50
2022-09-09T11:17:25.785Z,1007.52
2022-09-09T11:18:25.980Z,1007.55
2022-09-09T11:19:24.519Z,1007.52
2022-09-09T11:20:24.759Z,1007.54
2022-09-09T11:21:24.988Z,1007.54
2022-09-09T11:22:25.230Z,1007.72
2022-09-09T11:23:25.507Z,1007.53
2022-09-09T11:24:27.657Z,1007.46
2022-09-09T11:25:25.961Z,1007.56
2022-09-09T11:26:26.201Z,1007.51
2022-09-09T11:27:28.418Z,1007.48
2022-09-09T11:28:26.781Z,1007.50
2022-09-09T11:29:27.015Z,1007.70
2022-09-09T11:30:53.852Z,1007.51
2022-09-09T11:31:30.463Z,1007.42
2022-09-09T11:32:29.631Z,1007.42
2022-09-09T11:33:28.033Z,1007.63
2022-09-09T11:34:28.406Z,1007.53
2022-09-09T11:35:28.614Z,1007.65
2022-09-09T11:36:28.858Z,1007.64
2022-09-09T11:37:31.036Z,1007.63
2022-09-09T11:38:29.353Z,1007.50
2022-09-09T11:39:29.591Z,1007.56
2022-09-09T11:40:29.830Z,1007.53
2022-09-09T11:41:30.087Z,1007.56
2022-09-09T11:42:32.270Z,1007.52
2022-09-09T11:43:32.450Z,1007.52
2022-09-09T11:44:32.705Z,1007.57
2022-09-09T11:45:31.118Z,1007.59
2022-09-09T11:46:33.331Z,1007.58
2022-09-09T11:47:33.476Z,1007.55
2022-09-09T11:48:31.929Z,1007.58
2022-09-09T11:49:32.147Z,1007.58
2022-09-09T11:50:34.332Z,1007.61
2022-09-09T11:51:32.632Z,1007.61
2022-09-09T11:52:34.815Z,1007.58
2022-09-09T11:53:33.122Z,1007.55
2022-09-09T11:54:33.359Z,1007.60
2022-09-09T11:55:34.542Z,1007.58
2022-09-09T11:56:33.835Z,1007.56
2022-09-09T11:57:36.007Z,1007.60
2022-09-09T11:58:36.191Z,1007.56
2022-09-09T11:59:36.342Z,1007.62
2022-09-09T12:00:36.515Z,1007.59
2022-09-09T12:01:37.185Z,1007.58
2022-09-09T12:02:37.391Z,1007.58
2022-09-09T12:03:37.522Z,1007.62
2022-09-09T12:04:37.830Z,1007.64
2022-09-09T12:05:37.913Z,1007.67
2022-09-09T12:06:38.607Z,1007.69
2022-09-09T12:07:38.798Z,1007.78
2022-09-09T12:08:38.973Z,1007.66
2022-09-09T12:09:39.649Z,1007.68
2022-09-09T12:10:39.838Z,1007.73
2022-09-09T12:11:40.030Z,1007.77
2022-09-09T12:12:43.796Z,1007.61